Time;durP1;ratioP1;P1;durP2;ratioP2;P2;SDS_P1;SDS_P2;PMS_P1;PMS_P2;Temp;Humidity;BMP_temperature;BMP_pressure;BME280_temperature;BME280_humidity;BME280_pressure;Samples;Min_cycle;Max_cycle;Signal;HPM_P1;HPM_P2
2021/08/10 00:00:23;;;;;;;12.15;6.05;;;15.00;99.90;;;;;;5068853;28;20461;-78
2021/08/10 00:02:49;;;;;;;10.00;6.20;;;14.90;99.90;;;;;;5043680;28;20409;-81
2021/08/10 00:05:15;;;;;;;13.70;7.72;;;14.90;99.90;;;;;;5060347;28;20866;-82
2021/08/10 00:07:40;;;;;;;11.70;6.20;;;14.80;99.90;;;;;;5061096;28;20405;-83
2021/08/10 00:10:07;;;;;;;10.27;6.40;;;14.80;99.90;;;;;;5051272;28;20386;-82
2021/08/10 00:12:33;;;;;;;11.77;7.03;;;14.80;99.90;;;;;;5071281;28;20399;-81
2021/08/10 00:14:58;;;;;;;12.75;7.30;;;14.70;99.90;;;;;;5073718;28;20381;-82
2021/08/10 00:17:24;;;;;;;13.43;6.90;;;14.70;99.90;;;;;;5066614;28;20420;-80
2021/08/10 00:19:50;;;;;;;9.38;6.47;;;14.60;99.90;;;;;;5043545;28;20412;-81
2021/08/10 00:22:15;;;;;;;13.00;6.90;;;14.70;99.90;;;;;;5059512;28;20381;-79
2021/08/10 00:24:41;;;;;;;10.50;7.05;;;14.70;99.90;;;;;;5043099;28;20397;-83
2021/08/10 00:27:06;;;;;;;12.60;7.30;;;14.60;99.90;;;;;;5062992;28;20393;-83
2021/08/10 00:29:32;;;;;;;15.93;7.30;;;14.50;99.90;;;;;;5063150;28;20435;-79
2021/08/10 00:31:58;;;;;;;12.67;6.70;;;14.50;99.90;;;;;;5065467;28;20396;-78
2021/08/10 00:34:23;;;;;;;13.80;6.90;;;14.50;99.90;;;;;;5065370;28;20393;-82
2021/08/10 00:36:49;;;;;;;13.18;7.47;;;14.50;99.90;;;;;;5048407;28;20488;-79
2021/08/10 00:39:15;;;;;;;15.85;7.10;;;14.40;99.90;;;;;;5066386;28;20417;-81
2021/08/10 00:41:41;;;;;;;11.98;7.60;;;14.50;99.90;;;;;;5043554;28;20385;-82
2021/08/10 00:44:08;;;;;;;13.85;6.80;;;14.50;99.90;;;;;;5058589;28;20933;-82
2021/08/10 00:46:33;;;;;;;14.00;7.75;;;14.40;99.90;;;;;;5060746;28;20497;-83
2021/08/10 00:48:59;;;;;;;16.87;7.30;;;14.50;99.90;;;;;;5059560;28;20422;-82
2021/08/10 00:51:25;;;;;;;17.60;6.83;;;14.50;99.90;;;;;;5058258;28;20544;-80
2021/08/10 00:53:51;;;;;;;10.60;7.17;;;14.50;99.90;;;;;;5060038;28;20916;-82
2021/08/10 00:56:16;;;;;;;13.60;7.57;;;14.40;99.90;;;;;;5058939;28;20397;-81
2021/08/10 00:58:42;;;;;;;12.03;7.07;;;14.40;99.90;;;;;;5059054;28;20381;-82
2021/08/10 01:01:08;;;;;;;11.80;7.13;;;14.40;99.90;;;;;;5060043;28;20409;-82
2021/08/10 01:03:33;;;;;;;13.73;7.10;;;14.30;99.90;;;;;;5060605;28;20885;-80
2021/08/10 01:06:06;;;;;;;14.57;7.10;;;14.30;99.90;;;;;;5046639;28;20432;-79
2021/08/10 01:09:02;;;;;;;14.03;7.10;;;14.30;99.90;;;;;;5053915;28;20416;-80
2021/08/10 01:11:56;;;;;;;13.27;6.80;;;14.30;99.90;;;;;;5052863;28;20405;-82
2021/08/10 01:14:26;;;;;;;11.90;6.80;;;14.30;99.90;;;;;;5036437;28;20389;-79
2021/08/10 01:17:05;;;;;;;12.45;6.90;;;14.20;99.90;;;;;;5067875;28;20400;-81
2021/08/10 01:19:36;;;;;;;14.80;6.60;;;14.20;99.90;;;;;;5049805;28;20478;-79
2021/08/10 01:22:05;;;;;;;18.33;8.20;;;14.30;99.90;;;;;;5050099;28;20416;-80
2021/08/10 01:24:38;;;;;;;16.80;7.07;;;14.40;99.90;;;;;;5070156;28;20446;-80
2021/08/10 01:27:38;;;;;;;13.07;7.30;;;14.30;99.90;;;;;;5069414;28;20380;-79
2021/08/10 01:30:07;;;;;;;14.50;7.33;;;14.40;99.90;;;;;;5066752;28;20385;-79
2021/08/10 01:32:34;;;;;;;16.83;7.30;;;14.40;99.90;;;;;;5061100;28;20382;-81
2021/08/10 01:35:00;;;;;;;11.05;6.60;;;14.50;99.90;;;;;;5065747;28;20412;-80
2021/08/10 01:37:28;;;;;;;12.82;6.40;;;14.50;99.90;;;;;;5059693;28;20381;-81
2021/08/10 01:40:06;;;;;;;10.50;6.50;;;14.50;99.90;;;;;;5038686;28;20835;-81
2021/08/10 01:42:33;;;;;;;12.82;6.30;;;14.60;99.90;;;;;;5043114;28;20404;-81
2021/08/10 01:45:01;;;;;;;12.73;6.60;;;14.60;99.90;;;;;;5064176;28;20381;-82
2021/08/10 01:47:29;;;;;;;12.20;6.80;;;14.60;99.90;;;;;;5043513;28;20389;-82
2021/08/10 01:49:57;;;;;;;11.95;6.55;;;14.70;99.90;;;;;;5043156;28;20408;-81
2021/08/10 01:52:23;;;;;;;10.73;6.57;;;14.80;99.90;;;;;;5061821;28;20389;-81
2021/08/10 01:54:49;;;;;;;11.25;6.30;;;14.80;99.90;;;;;;5061612;28;20439;-80
2021/08/10 01:57:19;;;;;;;8.95;6.00;;;14.80;99.90;;;;;;5043587;28;20390;-82
2021/08/10 01:59:47;;;;;;;12.15;6.20;;;14.80;99.90;;;;;;5042627;28;20405;-82
2021/08/10 02:02:13;;;;;;;11.95;6.15;;;14.80;99.90;;;;;;5061090;28;20385;-82
2021/08/10 02:04:41;;;;;;;8.25;6.43;;;14.80;99.90;;;;;;5061154;28;20406;-82
2021/08/10 02:07:07;;;;;;;10.57;6.05;;;14.80;99.90;;;;;;5079151;22;20434;-75
2021/08/10 02:09:33;;;;;;;11.30;6.40;;;14.80;99.90;;;;;;5073401;28;20368;-76
2021/08/10 02:12:02;;;;;;;13.38;5.82;;;14.80;99.90;;;;;;5055605;28;20467;-76
2021/08/10 02:14:28;;;;;;;8.40;6.20;;;14.80;99.90;;;;;;5055709;28;20387;-76
2021/08/10 02:16:57;;;;;;;14.38;6.20;;;14.80;99.90;;;;;;5073786;28;20379;-76
2021/08/10 02:19:23;;;;;;;10.27;5.80;;;14.80;99.90;;;;;;5073307;28;20429;-76
2021/08/10 02:22:13;;;;;;;12.67;6.03;;;14.80;99.90;;;;;;5073559;28;20868;-76
2021/08/10 02:24:50;;;;;;;10.32;5.88;;;14.90;99.90;;;;;;5073468;28;20471;-76
2021/08/10 02:27:33;;;;;;;11.55;6.20;;;14.90;99.90;;;;;;5073175;28;20846;-76
2021/08/10 02:30:04;;;;;;;8.50;6.00;;;14.90;99.90;;;;;;5055427;28;20397;-76
2021/08/10 02:32:30;;;;;;;10.18;5.40;;;14.90;99.90;;;;;;5073091;28;20384;-76
2021/08/10 02:34:58;;;;;;;12.30;5.40;;;15.00;99.90;;;;;;5055354;28;20444;-76
2021/08/10 02:37:24;;;;;;;15.52;5.78;;;15.00;99.90;;;;;;5054969;28;20396;-76
2021/08/10 02:39:52;;;;;;;9.73;5.82;;;15.10;99.90;;;;;;5072968;28;20423;-76
2021/08/10 02:42:22;;;;;;;9.07;5.57;;;15.00;99.90;;;;;;5073015;28;20434;-76
2021/08/10 02:44:49;;;;;;;10.13;5.70;;;15.00;99.90;;;;;;5073248;28;20739;-76
2021/08/10 02:47:16;;;;;;;14.13;6.00;;;15.00;99.90;;;;;;5073154;28;20387;-75
2021/08/10 02:49:42;;;;;;;7.30;5.38;;;15.10;99.90;;;;;;5072944;28;20474;-75
2021/08/10 02:52:08;;;;;;;12.80;6.03;;;15.10;99.90;;;;;;5072622;28;20785;-76
2021/08/10 02:54:35;;;;;;;12.38;5.82;;;15.20;99.90;;;;;;5074247;28;20474;-76
2021/08/10 02:57:31;;;;;;;7.72;5.30;;;15.20;99.90;;;;;;5073227;28;20388;-75
2021/08/10 03:00:07;;;;;;;12.93;5.30;;;15.30;99.90;;;;;;5049802;28;20396;-75
2021/08/10 03:02:41;;;;;;;9.70;5.82;;;15.30;99.90;;;;;;5072984;28;20791;-75
2021/08/10 03:05:12;;;;;;;11.23;5.70;;;15.30;99.90;;;;;;5073008;28;20376;-75
2021/08/10 03:07:46;;;;;;;11.75;5.78;;;15.40;99.90;;;;;;5072801;28;20391;-77
2021/08/10 03:10:14;;;;;;;11.40;5.80;;;15.50;97.40;;;;;;5073401;28;20464;-75
2021/08/10 03:12:44;;;;;;;12.15;5.22;;;15.50;96.50;;;;;;5073363;28;20384;-75
2021/08/10 03:15:12;;;;;;;8.52;4.80;;;15.70;92.30;;;;;;5073279;28;20466;-76
2021/08/10 03:17:39;;;;;;;9.38;4.97;;;15.70;89.10;;;;;;5072630;28;20908;-76
2021/08/10 03:20:07;;;;;;;9.48;4.25;;;15.70;87.40;;;;;;5072638;28;20411;-75
2021/08/10 03:22:35;;;;;;;7.00;4.40;;;15.80;84.70;;;;;;5072510;28;20396;-75
2021/08/10 03:25:03;;;;;;;8.93;4.43;;;15.80;84.40;;;;;;5054456;28;20387;-76
2021/08/10 03:27:29;;;;;;;8.20;5.00;;;15.70;80.90;;;;;;5072034;28;20383;-76
2021/08/10 03:29:56;;;;;;;7.38;4.85;;;15.60;78.60;;;;;;5072298;28;20765;-75
2021/08/10 03:32:22;;;;;;;10.50;5.50;;;15.60;79.80;;;;;;5072353;28;20403;-74
2021/08/10 03:34:48;;;;;;;11.20;5.28;;;15.60;79.60;;;;;;5072301;28;20441;-75
2021/08/10 03:37:15;;;;;;;9.40;5.20;;;15.50;79.60;;;;;;5072116;28;20384;-76
2021/08/10 03:39:42;;;;;;;11.20;5.40;;;15.40;80.50;;;;;;5071966;28;20558;-77
2021/08/10 03:42:08;;;;;;;11.25;5.47;;;15.60;79.20;;;;;;5072398;28;20437;-75
2021/08/10 03:44:35;;;;;;;8.00;5.60;;;15.70;76.40;;;;;;5072184;28;20384;-76
2021/08/10 03:47:01;;;;;;;11.48;5.60;;;15.50;79.30;;;;;;5072073;28;20380;-76
2021/08/10 03:49:30;;;;;;;9.48;5.68;;;15.40;79.90;;;;;;5054427;28;20384;-75
2021/08/10 03:51:55;;;;;;;11.38;6.20;;;15.30;80.60;;;;;;5072720;28;20898;-76
2021/08/10 03:54:21;;;;;;;9.82;6.15;;;15.20;83.80;;;;;;5072327;28;20380;-76
2021/08/10 03:56:50;;;;;;;13.57;6.68;;;15.20;86.20;;;;;;5072152;28;20380;-76
2021/08/10 03:59:17;;;;;;;12.50;6.00;;;15.20;87.80;;;;;;5072088;28;20383;-76
2021/08/10 04:01:43;;;;;;;12.02;6.97;;;15.20;89.50;;;;;;5073170;28;20387;-76
2021/08/10 04:04:11;;;;;;;11.52;6.65;;;15.20;90.50;;;;;;5072537;28;20387;-76
2021/08/10 04:06:38;;;;;;;13.85;6.63;;;15.10;92.20;;;;;;5072551;28;20474;-75
2021/08/10 04:09:05;;;;;;;16.77;7.18;;;15.10;93.10;;;;;;5071723;28;20380;-76
2021/08/10 04:11:31;;;;;;;10.15;6.50;;;15.10;92.50;;;;;;5054048;28;20395;-77
2021/08/10 04:13:57;;;;;;;13.70;6.70;;;15.10;92.90;;;;;;5072239;28;20387;-77
2021/08/10 04:16:24;;;;;;;12.90;6.80;;;15.10;92.50;;;;;;5072297;28;20384;-77
2021/08/10 04:18:52;;;;;;;9.50;5.80;;;15.10;92.60;;;;;;5071997;28;20422;-76
2021/08/10 04:21:25;;;;;;;11.70;6.03;;;15.10;92.20;;;;;;5071932;28;20445;-77
2021/08/10 04:23:51;;;;;;;14.40;6.30;;;15.00;91.40;;;;;;5072125;28;20384;-77
2021/08/10 04:26:16;;;;;;;11.73;6.25;;;14.90;92.00;;;;;;5053628;28;20474;-76
2021/08/10 04:28:42;;;;;;;11.70;6.40;;;14.80;93.20;;;;;;5053991;28;20791;-76
2021/08/10 04:31:08;;;;;;;12.00;6.30;;;14.60;93.90;;;;;;5071797;28;20380;-76
2021/08/10 04:33:33;;;;;;;10.93;6.30;;;14.50;95.80;;;;;;5071957;28;20415;-76
2021/08/10 04:35:59;;;;;;;11.03;6.70;;;14.60;97.20;;;;;;5071713;28;20889;-76
2021/08/10 04:38:24;;;;;;;16.23;6.20;;;14.60;98.00;;;;;;5071607;28;20428;-76
2021/08/10 04:40:50;;;;;;;16.13;7.15;;;14.70;98.40;;;;;;5053646;28;20404;-76
2021/08/10 04:43:15;;;;;;;14.38;6.63;;;14.60;97.70;;;;;;5054488;28;20392;-76
2021/08/10 04:45:41;;;;;;;12.97;6.60;;;14.60;98.30;;;;;;5072065;28;20471;-76
2021/08/10 04:48:08;;;;;;;12.27;6.00;;;14.50;98.60;;;;;;5072726;28;20376;-76
2021/08/10 04:50:34;;;;;;;11.63;6.82;;;14.40;98.90;;;;;;5073460;28;20388;-77
2021/08/10 04:52:59;;;;;;;12.33;6.80;;;14.30;99.80;;;;;;5076938;28;20414;-75
2021/08/10 04:55:25;;;;;;;9.27;6.50;;;14.30;99.90;;;;;;5082270;28;20391;-76
2021/08/10 04:57:51;;;;;;;12.07;7.00;;;14.30;99.90;;;;;;5083407;28;20926;-76
2021/08/10 05:00:17;;;;;;;14.40;7.05;;;14.30;99.90;;;;;;5085552;28;20410;-76
2021/08/10 05:02:42;;;;;;;10.95;6.97;;;14.40;99.90;;;;;;5066096;28;20387;-76
2021/08/10 05:05:09;;;;;;;12.07;7.13;;;14.40;99.90;;;;;;5084182;28;20383;-75
2021/08/10 05:07:35;;;;;;;15.98;7.53;;;14.40;99.90;;;;;;5083719;28;20391;-74
2021/08/10 05:10:02;;;;;;;13.65;7.75;;;14.40;99.90;;;;;;5073295;28;20384;-75
2021/08/10 05:12:27;;;;;;;11.13;7.03;;;14.50;99.90;;;;;;5053861;28;20754;-76
2021/08/10 05:14:53;;;;;;;15.35;7.60;;;14.50;99.90;;;;;;5071840;28;20375;-76
2021/08/10 05:17:19;;;;;;;15.03;8.30;;;14.50;99.90;;;;;;5074861;28;20379;-79
2021/08/10 05:19:44;;;;;;;11.00;7.00;;;14.50;99.90;;;;;;5075166;28;20818;-76
2021/08/10 05:22:10;;;;;;;19.88;7.00;;;14.60;99.90;;;;;;5074857;28;20384;-75
2021/08/10 05:24:35;;;;;;;13.80;7.35;;;14.70;99.90;;;;;;5075348;28;20379;-76
2021/08/10 05:27:01;;;;;;;12.90;8.18;;;14.80;99.90;;;;;;5075508;28;20394;-76
2021/08/10 05:29:27;;;;;;;17.80;8.53;;;14.80;99.90;;;;;;5056751;28;20383;-76
2021/08/10 05:31:52;;;;;;;13.95;7.15;;;14.90;99.90;;;;;;5075208;28;20390;-77
2021/08/10 05:34:18;;;;;;;15.33;7.87;;;14.90;99.90;;;;;;5074823;28;20376;-76
2021/08/10 05:36:43;;;;;;;11.00;6.90;;;15.00;99.90;;;;;;5074730;28;20390;-76
2021/08/10 05:39:09;;;;;;;11.60;6.73;;;15.00;99.90;;;;;;5074785;28;20462;-76
2021/08/10 05:41:35;;;;;;;11.30;6.55;;;15.10;98.50;;;;;;5075041;28;20395;-76
2021/08/10 05:44:00;;;;;;;45.38;28.73;;;15.20;96.50;;;;;;5074385;28;20386;-76
2021/08/10 05:46:26;;;;;;;21.17;10.15;;;15.20;95.80;;;;;;5074071;28;20384;-75
2021/08/10 05:48:52;;;;;;;12.80;9.30;;;15.30;95.40;;;;;;5074178;28;20434;-75
2021/08/10 05:51:17;;;;;;;24.60;15.17;;;15.30;95.00;;;;;;5075342;28;20517;-77
2021/08/10 05:53:43;;;;;;;14.97;7.30;;;15.40;95.40;;;;;;5074843;28;20448;-77
2021/08/10 05:56:08;;;;;;;31.27;13.15;;;15.50;94.10;;;;;;5074278;28;20387;-76
2021/08/10 05:58:34;;;;;;;17.05;8.50;;;15.60;93.70;;;;;;5073847;28;20388;-76
2021/08/10 06:00:59;;;;;;;14.00;7.70;;;15.60;92.20;;;;;;5074145;28;20864;-75
2021/08/10 06:03:25;;;;;;;15.63;7.80;;;15.70;92.00;;;;;;5055644;28;20426;-76
2021/08/10 06:05:51;;;;;;;15.50;8.00;;;15.70;92.00;;;;;;5055415;28;20474;-75
2021/08/10 06:08:16;;;;;;;14.85;8.27;;;15.80;92.10;;;;;;5072989;28;20476;-76
2021/08/10 06:10:42;;;;;;;12.73;7.70;;;15.80;92.30;;;;;;5073473;28;20876;-76
2021/08/10 06:13:07;;;;;;;11.13;7.33;;;16.00;90.30;;;;;;5055604;28;20887;-76
2021/08/10 06:15:33;;;;;;;12.30;7.20;;;16.10;87.00;;;;;;5073617;28;20396;-76
2021/08/10 06:17:58;;;;;;;15.17;8.13;;;16.10;86.10;;;;;;5055505;28;20462;-75
2021/08/10 06:20:24;;;;;;;11.38;8.50;;;16.20;84.90;;;;;;5073772;28;20400;-76
2021/08/10 06:22:50;;;;;;;10.03;6.90;;;16.30;85.10;;;;;;5073643;28;20384;-76
2021/08/10 06:25:15;;;;;;;12.47;7.13;;;16.30;82.60;;;;;;5073882;28;20386;-76
2021/08/10 06:27:41;;;;;;;12.70;6.90;;;16.50;82.10;;;;;;5056008;28;20730;-76
2021/08/10 06:30:09;;;;;;;11.57;6.43;;;16.70;80.20;;;;;;5073669;28;20423;-76
2021/08/10 06:32:35;;;;;;;11.88;6.50;;;16.90;76.00;;;;;;5055879;28;20391;-75
2021/08/10 06:35:00;;;;;;;10.70;6.70;;;17.00;73.50;;;;;;5073662;28;20899;-76
2021/08/10 06:37:26;;;;;;;10.82;6.85;;;17.20;71.40;;;;;;5073078;28;20876;-76
2021/08/10 06:39:51;;;;;;;9.68;6.20;;;17.50;68.90;;;;;;5073120;28;20395;-75
2021/08/10 06:42:19;;;;;;;9.82;6.30;;;17.60;67.40;;;;;;5073643;28;20387;-75
2021/08/10 06:44:45;;;;;;;11.45;6.80;;;17.70;66.80;;;;;;5073772;28;20384;-76
2021/08/10 06:47:11;;;;;;;8.68;6.32;;;17.70;65.00;;;;;;5073649;28;20379;-76
2021/08/10 06:49:36;;;;;;;13.87;7.20;;;17.70;64.60;;;;;;5074132;28;20383;-75
2021/08/10 06:52:02;;;;;;;11.90;7.73;;;17.70;61.80;;;;;;5073096;28;20387;-74
2021/08/10 06:54:28;;;;;;;16.40;7.50;;;17.80;62.50;;;;;;5072893;28;20448;-75
2021/08/10 06:56:53;;;;;;;12.43;7.97;;;17.80;64.50;;;;;;5073135;28;20783;-77
2021/08/10 06:59:19;;;;;;;10.93;7.45;;;18.10;61.40;;;;;;5072560;28;20864;-76
2021/08/10 07:01:45;;;;;;;11.37;8.30;;;18.10;60.00;;;;;;5072909;28;20380;-76
2021/08/10 07:04:10;;;;;;;12.43;7.57;;;18.10;60.90;;;;;;5072727;28;20387;-76
2021/08/10 07:06:36;;;;;;;16.88;8.20;;;18.10;60.50;;;;;;5072174;28;20791;-75
2021/08/10 07:09:05;;;;;;;14.43;7.55;;;18.10;59.60;;;;;;5072661;28;20380;-75
2021/08/10 07:11:31;;;;;;;11.50;7.18;;;18.40;58.80;;;;;;5072658;28;20383;-76
2021/08/10 07:13:57;;;;;;;14.75;7.10;;;18.50;56.80;;;;;;5072641;28;20748;-75
2021/08/10 07:16:23;;;;;;;17.03;6.73;;;18.70;55.40;;;;;;5073250;28;20384;-75
2021/08/10 07:18:49;;;;;;;11.38;6.28;;;18.90;55.90;;;;;;5073542;28;20387;-76
2021/08/10 07:21:14;;;;;;;12.38;7.10;;;18.90;55.10;;;;;;5072972;28;20432;-75
2021/08/10 07:23:40;;;;;;;11.57;6.65;;;18.90;53.30;;;;;;5073327;28;20388;-75
2021/08/10 07:26:05;;;;;;;11.67;6.73;;;18.80;54.40;;;;;;5072708;28;20383;-75
2021/08/10 07:28:31;;;;;;;10.98;6.65;;;18.80;55.50;;;;;;5056196;28;20387;-76
2021/08/10 07:30:56;;;;;;;12.30;6.28;;;18.90;56.60;;;;;;5072806;28;20667;-76
2021/08/10 07:33:22;;;;;;;14.33;7.40;;;19.00;54.40;;;;;;5072253;28;20722;-77
2021/08/10 07:35:47;;;;;;;12.85;7.07;;;19.30;54.90;;;;;;5072735;28;20388;-76
2021/08/10 07:38:13;;;;;;;10.68;6.43;;;19.50;52.60;;;;;;5053951;28;20380;-75
2021/08/10 07:40:39;;;;;;;11.30;6.63;;;19.60;51.20;;;;;;5072480;28;20456;-75
2021/08/10 07:43:04;;;;;;;10.23;6.82;;;19.70;49.20;;;;;;5072509;28;20768;-75
2021/08/10 07:45:30;;;;;;;11.98;6.82;;;19.80;48.10;;;;;;5054856;28;20963;-76
2021/08/10 07:47:56;;;;;;;12.97;6.73;;;19.80;47.80;;;;;;5071590;28;20990;-76
2021/08/10 07:50:21;;;;;;;10.23;6.32;;;20.00;47.80;;;;;;5072115;28;20405;-77
2021/08/10 07:52:48;;;;;;;13.80;8.45;;;20.10;47.40;;;;;;5072348;28;20391;-75
2021/08/10 07:55:14;;;;;;;12.07;5.33;;;20.30;44.10;;;;;;5054694;28;20418;-75
2021/08/10 07:57:41;;;;;;;8.93;5.50;;;20.50;43.40;;;;;;5072762;28;20470;-76
2021/08/10 08:00:08;;;;;;;11.90;6.10;;;20.50;42.50;;;;;;5072860;28;20435;-77
2021/08/10 08:02:33;;;;;;;13.27;5.37;;;20.90;41.10;;;;;;5073496;28;20388;-76
2021/08/10 08:04:59;;;;;;;10.13;5.13;;;21.20;39.90;;;;;;5073024;28;20384;-76
2021/08/10 08:07:24;;;;;;;9.68;5.28;;;21.20;38.60;;;;;;5072150;28;20738;-74
2021/08/10 08:09:50;;;;;;;8.90;5.07;;;21.20;37.40;;;;;;5071255;28;20391;-74
2021/08/10 08:12:16;;;;;;;7.70;4.95;;;21.30;36.60;;;;;;5071330;28;20457;-75
2021/08/10 08:14:44;;;;;;;6.33;4.63;;;21.30;36.70;;;;;;5071520;28;20383;-75
2021/08/10 08:17:10;;;;;;;14.25;5.75;;;21.40;37.50;;;;;;5053397;28;20730;-74
2021/08/10 08:19:36;;;;;;;9.77;4.88;;;21.40;36.50;;;;;;5070713;28;20441;-74
2021/08/10 08:22:01;;;;;;;10.10;5.20;;;21.40;36.10;;;;;;5071206;28;20379;-74
2021/08/10 08:24:27;;;;;;;8.07;5.07;;;21.50;36.60;;;;;;5071082;28;20379;-74
2021/08/10 08:26:53;;;;;;;7.97;4.90;;;21.70;36.50;;;;;;5071089;28;20379;-74
2021/08/10 08:29:19;;;;;;;8.15;4.82;;;21.70;34.50;;;;;;5070745;28;20371;-76
2021/08/10 08:31:45;;;;;;;12.77;4.90;;;21.80;33.30;;;;;;5070780;28;20521;-75
2021/08/10 08:34:10;;;;;;;8.23;5.05;;;21.90;34.40;;;;;;5070874;28;20433;-75
2021/08/10 08:36:36;;;;;;;8.20;4.83;;;22.40;33.40;;;;;;5070638;28;20414;-75
2021/08/10 08:39:02;;;;;;;8.52;4.35;;;22.60;31.60;;;;;;5070866;28;20411;-75
2021/08/10 08:41:28;;;;;;;8.20;4.90;;;22.70;29.40;;;;;;5052716;28;20415;-75
2021/08/10 08:43:53;;;;;;;7.80;4.20;;;22.70;30.00;;;;;;5071198;28;20387;-75
2021/08/10 08:46:21;;;;;;;10.60;5.00;;;22.70;30.30;;;;;;5053111;28;20750;-76
2021/08/10 08:48:47;;;;;;;10.48;4.72;;;22.70;30.80;;;;;;5071294;28;20386;-77
2021/08/10 08:51:17;;;;;;;7.20;4.63;;;22.50;30.70;;;;;;5071472;28;20384;-77
2021/08/10 08:54:09;;;;;;;9.20;3.90;;;22.60;30.40;;;;;;5073362;28;20383;-75
2021/08/10 08:56:35;;;;;;;9.02;4.90;;;22.90;29.60;;;;;;5067248;28;20391;-76
2021/08/10 08:59:02;;;;;;;7.93;4.30;;;23.00;28.20;;;;;;5073965;28;20383;-75
2021/08/10 09:01:27;;;;;;;7.70;4.75;;;22.90;29.10;;;;;;5076039;28;20421;-75
2021/08/10 09:03:53;;;;;;;8.87;4.67;;;22.80;29.30;;;;;;5074216;28;20884;-75
2021/08/10 09:06:19;;;;;;;10.98;4.72;;;22.60;28.80;;;;;;5073346;28;20388;-75
2021/08/10 09:08:47;;;;;;;5.87;4.33;;;22.60;30.00;;;;;;5071001;28;20467;-75
2021/08/10 09:11:21;;;;;;;8.65;4.55;;;22.50;29.80;;;;;;5071230;28;20383;-75
2021/08/10 09:13:58;;;;;;;7.30;4.50;;;22.30;30.80;;;;;;5071480;28;20402;-76
2021/08/10 09:16:24;;;;;;;9.75;4.50;;;22.20;31.80;;;;;;5077242;28;20430;-76
2021/08/10 09:18:50;;;;;;;6.80;4.57;;;22.10;32.30;;;;;;5070744;28;20583;-76
2021/08/10 09:21:19;;;;;;;6.87;4.53;;;21.90;31.60;;;;;;5070737;28;21046;-76
2021/08/10 09:23:49;;;;;;;6.00;3.83;;;21.90;31.60;;;;;;5071228;28;20517;-75
2021/08/10 09:26:37;;;;;;;8.27;4.07;;;21.70;31.00;;;;;;5070418;28;20376;-75
2021/08/10 09:29:03;;;;;;;5.97;4.00;;;21.40;33.40;;;;;;5052193;28;20480;-76
2021/08/10 09:31:43;;;;;;;6.35;4.28;;;21.40;33.90;;;;;;5070455;28;20434;-74
2021/08/10 09:34:27;;;;;;;8.43;4.20;;;21.40;32.70;;;;;;5052877;28;20394;-74
2021/08/10 09:36:53;;;;;;;5.32;3.83;;;21.30;33.70;;;;;;5070809;28;20718;-76
2021/08/10 09:39:35;;;;;;;8.30;4.00;;;21.30;33.80;;;;;;5070220;28;20466;-74
2021/08/10 09:42:06;;;;;;;6.23;4.40;;;21.60;34.50;;;;;;5070568;28;20376;-75
2021/08/10 09:44:33;;;;;;;5.80;4.03;;;21.70;33.10;;;;;;5052303;28;20399;-75
2021/08/10 09:46:59;;;;;;;6.82;3.80;;;21.80;32.90;;;;;;5070308;28;20772;-75
2021/08/10 09:49:42;;;;;;;6.87;4.10;;;22.10;32.20;;;;;;5070627;28;20368;-75
2021/08/10 09:52:08;;;;;;;8.05;4.32;;;22.50;30.70;;;;;;5052152;28;20467;-75
2021/08/10 09:54:33;;;;;;;8.70;4.23;;;22.50;29.70;;;;;;5070487;28;20463;-74
2021/08/10 09:57:12;;;;;;;10.60;4.40;;;22.40;30.00;;;;;;5070395;28;20437;-76
2021/08/10 09:59:44;;;;;;;6.82;4.50;;;22.40;30.40;;;;;;5070162;28;20395;-74
2021/08/10 10:02:23;;;;;;;8.23;4.37;;;22.60;30.70;;;;;;5053744;28;20388;-75
2021/08/10 10:04:53;;;;;;;4.78;4.30;;;22.70;28.90;;;;;;5074251;28;20725;-75
2021/08/10 10:07:20;;;;;;;8.55;4.38;;;22.80;29.40;;;;;;5073127;28;20387;-75
2021/08/10 10:09:46;;;;;;;8.68;4.38;;;22.90;29.10;;;;;;5074175;28;20527;-75
2021/08/10 10:12:13;;;;;;;9.45;4.43;;;22.90;28.90;;;;;;5073709;28;20375;-75
2021/08/10 10:14:39;;;;;;;7.70;4.10;;;23.10;28.00;;;;;;5073984;28;20930;-76
2021/08/10 10:17:08;;;;;;;8.75;4.40;;;23.30;26.60;;;;;;5056101;28;20450;-75
2021/08/10 10:19:43;;;;;;;8.63;4.93;;;23.40;26.90;;;;;;5074065;28;20387;-76
2021/08/10 10:22:16;;;;;;;7.63;4.27;;;23.30;27.70;;;;;;5074108;28;20395;-76
2021/08/10 10:24:54;;;;;;;10.07;4.72;;;23.20;27.20;;;;;;5055267;28;20434;-75
2021/08/10 10:27:21;;;;;;;6.50;4.60;;;23.40;26.70;;;;;;5073314;28;20412;-73
2021/08/10 10:29:48;;;;;;;6.57;3.80;;;23.50;25.90;;;;;;5074954;28;20395;-76
2021/08/10 10:32:17;;;;;;;5.10;4.00;;;23.40;25.60;;;;;;5074385;28;20390;-74
2021/08/10 10:34:43;;;;;;;8.75;4.53;;;23.40;26.50;;;;;;5074050;28;20779;-76
2021/08/10 10:37:10;;;;;;;7.53;3.97;;;23.60;26.20;;;;;;5073776;28;20384;-74
2021/08/10 10:39:39;;;;;;;13.40;4.40;;;23.60;26.10;;;;;;5054737;28;20487;-75
2021/08/10 10:42:08;;;;;;;7.72;4.47;;;23.70;25.30;;;;;;5072984;28;20442;-75
2021/08/10 10:44:51;;;;;;;7.85;3.88;;;23.90;24.00;;;;;;5073810;28;20414;-74
2021/08/10 10:47:20;;;;;;;7.90;4.20;;;23.90;21.60;;;;;;5072785;28;20383;-75
2021/08/10 10:49:46;;;;;;;8.27;4.10;;;23.90;21.70;;;;;;5072495;28;20386;-74
2021/08/10 10:52:16;;;;;;;7.57;4.30;;;24.10;21.00;;;;;;5072948;28;20872;-74
2021/08/10 10:54:45;;;;;;;7.72;4.68;;;24.00;19.90;;;;;;5054527;28;20393;-75
2021/08/10 10:57:47;;;;;;;5.63;4.40;;;23.90;21.30;;;;;;5072404;28;20421;-75
2021/08/10 11:00:14;;;;;;;5.67;4.60;;;23.80;21.80;;;;;;4971406;28;20443;-74
2021/08/10 11:02:40;;;;;;;8.48;4.20;;;23.80;22.30;;;;;;5035168;28;20454;-75
2021/08/10 11:05:05;;;;;;;11.23;4.82;;;23.70;22.90;;;;;;5072618;28;20419;-74
2021/08/10 11:07:35;;;;;;;5.63;4.37;;;23.50;22.50;;;;;;5054227;28;20411;-74
2021/08/10 11:10:01;;;;;;;9.23;4.57;;;23.60;22.20;;;;;;5054733;28;20403;-74
2021/08/10 11:12:46;;;;;;;9.90;4.00;;;23.60;21.50;;;;;;5072999;28;20376;-74
2021/08/10 11:15:15;;;;;;;6.43;4.03;;;23.90;21.90;;;;;;5072625;28;20805;-74
2021/08/10 11:18:02;;;;;;;6.03;4.18;;;23.80;21.50;;;;;;5073720;28;20384;-75
2021/08/10 11:20:27;;;;;;;7.70;4.50;;;23.70;22.80;;;;;;5072613;28;20395;-75
2021/08/10 11:23:24;;;;;;;6.80;4.20;;;23.70;22.80;;;;;;5072368;28;20985;-75
2021/08/10 11:25:54;;;;;;;8.40;4.70;;;23.50;23.60;;;;;;5072177;28;20376;-75
2021/08/10 11:28:33;;;;;;;10.40;4.53;;;23.60;24.00;;;;;;5071649;28;20433;-76
2021/08/10 11:31:04;;;;;;;6.70;4.20;;;23.70;23.80;;;;;;5072130;28;20396;-74
2021/08/10 11:33:37;;;;;;;7.30;3.97;;;23.80;23.00;;;;;;5072089;28;20411;-75
2021/08/10 11:36:14;;;;;;;7.70;4.47;;;23.90;23.20;;;;;;5072426;28;20452;-75
2021/08/10 11:38:51;;;;;;;8.88;4.88;;;24.10;23.00;;;;;;5072304;28;20529;-76
2021/08/10 11:41:38;;;;;;;8.50;4.35;;;24.10;22.80;;;;;;5071981;28;20794;-75
2021/08/10 11:44:22;;;;;;;8.82;4.25;;;24.20;21.90;;;;;;5071826;28;20469;-75
2021/08/10 11:46:50;;;;;;;6.30;4.20;;;24.10;22.20;;;;;;5072123;28;20386;-76
2021/08/10 11:49:19;;;;;;;5.40;4.13;;;23.90;22.70;;;;;;5071601;28;20383;-75
2021/08/10 11:51:46;;;;;;;5.65;4.03;;;23.60;23.60;;;;;;5071750;28;20383;-74
2021/08/10 11:54:13;;;;;;;6.63;4.40;;;23.50;23.70;;;;;;5071358;28;20449;-75
2021/08/10 11:56:46;;;;;;;9.50;4.28;;;23.30;24.50;;;;;;5071754;28;20379;-76
2021/08/10 11:59:19;;;;;;;6.20;4.00;;;23.20;25.20;;;;;;5053830;28;20384;-74
2021/08/10 12:01:46;;;;;;;6.68;4.40;;;23.00;25.60;;;;;;5071477;28;20900;-74
2021/08/10 12:04:20;;;;;;;6.65;4.32;;;23.10;25.00;;;;;;5071839;28;20384;-76
2021/08/10 12:06:59;;;;;;;6.47;4.20;;;23.20;24.80;;;;;;5071627;28;20387;-76
2021/08/10 12:09:32;;;;;;;8.45;4.30;;;23.60;25.30;;;;;;5052990;28;20586;-76
2021/08/10 12:11:58;;;;;;;7.00;3.87;;;23.90;22.50;;;;;;5071517;28;20415;-76
2021/08/10 12:14:29;;;;;;;5.00;3.93;;;24.10;23.30;;;;;;5071448;28;20820;-75
2021/08/10 12:17:06;;;;;;;6.03;3.60;;;24.40;21.00;;;;;;5071232;28;20442;-75
2021/08/10 12:19:34;;;;;;;5.20;3.67;;;24.40;20.80;;;;;;5071504;28;20392;-75
2021/08/10 12:22:02;;;;;;;5.47;3.20;;;24.40;19.50;;;;;;5072348;28;20398;-76
2021/08/10 12:24:31;;;;;;;8.65;4.15;;;24.50;19.90;;;;;;5071132;28;20380;-75
2021/08/10 12:26:57;;;;;;;4.20;3.60;;;24.60;20.00;;;;;;5071520;28;20387;-75
2021/08/10 12:29:41;;;;;;;4.88;3.38;;;24.50;19.60;;;;;;5053200;28;20518;-76
2021/08/10 12:32:09;;;;;;;6.00;3.47;;;24.50;20.10;;;;;;5073509;28;20384;-75
2021/08/10 12:34:38;;;;;;;4.57;3.70;;;24.40;19.80;;;;;;5073539;28;20464;-75
2021/08/10 12:37:05;;;;;;;5.80;3.70;;;24.40;19.90;;;;;;5073713;28;20395;-75
2021/08/10 12:39:38;;;;;;;5.40;3.00;;;24.50;20.00;;;;;;5073673;28;20376;-76
2021/08/10 12:42:04;;;;;;;4.32;3.35;;;24.70;18.10;;;;;;5072726;28;20450;-76
2021/08/10 12:44:30;;;;;;;3.42;3.13;;;25.10;18.20;;;;;;5053775;28;20392;-73
2021/08/10 12:46:58;;;;;;;3.17;2.88;;;25.60;16.60;;;;;;5071343;28;20446;-75